Henderson, NC (27536)

10:59 PM EDT on September 15, 2014 (GMT -0400)
Gillburg | Change Station
CLOSE
Current Station
Personal Weather Station
Location: Henderson, NC
Elevation: 434 ft
Nearby Weather Stations

Elev 434 ft 36.26 °N, 78.37 °W | Updated 10 seconds ago

Overcast
Overcast
67.6 °F
Feels Like 67.6 °F
N
0.0
Wind Variable Wind from SE
Gusts 0.0 mph

Today
High -- | Low -- °F
--% Chance of Precip.
Yesterday
High -- | Low -- °F
Precip. -- in
6:56 AM 7:20 PM
Waning Gibbous, 50% visible
Pressure 30.13 in
Visibility 7.0 miles
Clouds Scattered Clouds 2800 ft
Dew Point 66 °F
Humidity 95%
Rainfall 0.00 in
Snow Depth Not available.
UV 0 out of 12
Pollen 6.20 out of 12
Ozone Good
PM2.5 Good
Flu Activity Not available.
METAR KHNZ 160235Z AUTO 19004KT 7SM SCT028 19/18 A3013 RMK AO2 T01910177

More Conditions Fewer Conditions

Pressure 30.13 in
Visibility 7.0 miles
Clouds Scattered Clouds 2800 ft
Dew Point 66 °F
Humidity 95%
Rainfall 0.00 in
Snow Depth Not available.
UV 0 out of 12
Pollen 6.20 out of 12
Ozone Good
PM2.5 Good
Flu Activity Not available.
METAR KHNZ 160235Z AUTO 19004KT 7SM SCT028 19/18 A3013 RMK AO2 T01910177

More Conditions Fewer Conditions

10-Day Weather Forecast

Almanac

Astronomy

Sep. 15, 2014 Rise Set
Actual Time 6:56 AM EDT 7:20 PM EDT
Civil Twilight 6:30 AM EDT 7:46 PM EDT
Nautical Twilight 5:59 AM EDT 8:17 PM EDT
Astronomical Twilight 5:28 AM EDT 8:47 PM EDT
Moon No Moon Rise 1:44 PM EDT (9/15)
Length of Visible Light 13h 16m
Length of Day
12h 24m
Tomorrow will be 2m 16s shorter.
Waning Gibbous, 50% of the Moon is Illuminated
Today
Waning Gibbous
Sep 24
New
Oct 1
First Quarter
Oct 8
Full
Oct 15
Last Quarter

Today's Extremes

State Highs State Lows

Community

WunderPhotos

Upload Photos

1,753,676 photos uploaded!

Nearby

Air Quality

  Air Quality AQ Index Pollutant
Yesterday Good
OZONE
Yesterday Good
PM2.5
Current Good
PM2.5
Current Good
OZONE
Monday Good
OZONE
Monday Good
PM2.5
Tuesday Good
OZONE
Tuesday Good
PM2.5
Wednesday Good
PM2.5
Wednesday Good
OZONE
Thursday Good
PM2.5
Thursday Good
OZONE

Snow Depth

Station Depth Elevation
No new snow has been reported.

Earthquake Activity

City Distance Mag. Time & Date
No recent earthquake activity has been reported nearby.
Minimum magnitude displayed is 2.5.

Coastal Water Temperatures

Place Temperature
No Stations Reporting

Nearby Weather Stations